createdAt,value
2023-03-06T00:01:31.294Z,93448.50
2023-03-06T00:03:57.748Z,93450.28
2023-03-06T00:06:24.180Z,93444.88
2023-03-06T00:08:50.560Z,93448.00
2023-03-06T00:11:17.389Z,93442.59
2023-03-06T00:13:43.897Z,93432.56
2023-03-06T00:16:10.310Z,93429.97
2023-03-06T00:18:36.890Z,93419.47
2023-03-06T00:21:07.424Z,93436.66
2023-03-06T00:23:33.874Z,93422.03
2023-03-06T00:26:00.325Z,93412.53
2023-03-06T00:28:27.130Z,93411.50
2023-03-06T00:30:53.520Z,93408.19
2023-03-06T00:33:19.965Z,93401.78
2023-03-06T00:35:46.417Z,93389.94
2023-03-06T00:38:14.522Z,93404.06
2023-03-06T00:40:40.957Z,93394.31
2023-03-06T00:43:07.385Z,93390.72
2023-03-06T00:45:35.090Z,93389.16
2023-03-06T00:48:01.548Z,93386.38
2023-03-06T00:50:28.161Z,93382.00
2023-03-06T00:52:54.556Z,93387.91
2023-03-06T00:55:20.997Z,93386.09
2023-03-06T00:57:48.229Z,93377.88
2023-03-06T01:00:15.118Z,93373.75
2023-03-06T01:02:41.784Z,93369.41
2023-03-06T01:05:09.323Z,93369.41
2023-03-06T01:07:37.187Z,93364.25
2023-03-06T01:10:08.495Z,93355.53
2023-03-06T01:12:35.113Z,93359.13
2023-03-06T01:15:01.646Z,93354.25
2023-03-06T01:17:28.522Z,93344.75
2023-03-06T01:19:54.937Z,93342.97
2023-03-06T01:22:21.400Z,93344.75
2023-03-06T01:24:47.819Z,93325.75
2023-03-06T01:27:14.472Z,93329.63
2023-03-06T01:29:43.384Z,93330.91
2023-03-06T01:32:10.044Z,93327.78
2023-03-06T01:34:36.528Z,93326.25
2023-03-06T01:37:03.043Z,93331.13
2023-03-06T01:39:31.371Z,93322.16
2023-03-06T01:41:57.851Z,93325.50
2023-03-06T01:44:24.333Z,93321.66
2023-03-06T01:46:50.889Z,93310.84
2023-03-06T01:49:41.507Z,93314.69
2023-03-06T01:52:15.494Z,93318.06
2023-03-06T01:54:53.411Z,93301.88
2023-03-06T01:57:28.835Z,93303.44
2023-03-06T02:00:09.317Z,93306.75
2023-03-06T02:02:49.817Z,93305.72
2023-03-06T02:05:16.388Z,93303.66
2023-03-06T02:07:44.187Z,93300.09
2023-03-06T02:10:14.804Z,93300.88
2023-03-06T02:12:43.672Z,93295.97
2023-03-06T02:15:12.463Z,93290.84
2023-03-06T02:17:39.489Z,93286.75
2023-03-06T02:20:30.504Z,93285.69
2023-03-06T02:23:18.111Z,93287.25
2023-03-06T02:25:48.257Z,93289.81
2023-03-06T02:28:18.268Z,93281.34
2023-03-06T02:30:47.948Z,93264.91
2023-03-06T02:33:20.138Z,93273.38
2023-03-06T02:35:50.999Z,93271.31
2023-03-06T02:38:21.020Z,93264.13
2023-03-06T02:40:51.587Z,93272.34
2023-03-06T02:43:29.037Z,93262.34
2023-03-06T02:45:56.643Z,93266.94
2023-03-06T02:48:23.094Z,93255.94
2023-03-06T02:50:49.900Z,93247.19
2023-03-06T02:53:19.774Z,93246.94
2023-03-06T02:55:46.983Z,93247.19
2023-03-06T02:58:16.003Z,93245.66
2023-03-06T03:00:43.057Z,93252.84
2023-03-06T03:03:10.118Z,93243.09
2023-03-06T03:05:36.621Z,93239.50
2023-03-06T03:08:13.622Z,93243.63
2023-03-06T03:10:40.073Z,93240.00
2023-03-06T03:13:06.760Z,93225.13
2023-03-06T03:15:34.466Z,93222.78
2023-03-06T03:18:00.922Z,93226.41
2023-03-06T03:20:27.356Z,93222.25
2023-03-06T03:22:55.566Z,93229.22
2023-03-06T03:25:24.824Z,93214.31
2023-03-06T03:27:54.197Z,93217.13
2023-03-06T03:30:20.960Z,93222.78
2023-03-06T03:32:47.768Z,93222.00
2023-03-06T03:35:14.238Z,93210.97
2023-03-06T03:37:41.637Z,93208.66
2023-03-06T03:40:10.184Z,93200.44
2023-03-06T03:42:36.880Z,93200.44
2023-03-06T03:45:05.192Z,93202.50
2023-03-06T03:47:31.812Z,93205.31
2023-03-06T03:49:58.217Z,93203.00
2023-03-06T03:52:25.094Z,93206.06
2023-03-06T03:54:51.792Z,93200.94
2023-03-06T03:57:18.287Z,93204.00
2023-03-06T03:59:50.251Z,93200.44
2023-03-06T04:02:36.613Z,93205.56
2023-03-06T04:05:16.826Z,93195.81
2023-03-06T04:07:43.505Z,93194.28
2023-03-06T04:10:12.399Z,93191.44
2023-03-06T04:12:39.675Z,93178.91
2023-03-06T04:15:07.677Z,93175.81
2023-03-06T04:17:35.282Z,93169.91
2023-03-06T04:20:06.826Z,93170.69
2023-03-06T04:22:34.104Z,93172.25
2023-03-06T04:25:00.633Z,93167.88
2023-03-06T04:27:27.494Z,93173.00
2023-03-06T04:29:56.266Z,93165.56
2023-03-06T04:32:23.797Z,93166.09
2023-03-06T04:34:50.667Z,93174.81
2023-03-06T04:37:20.652Z,93167.88
2023-03-06T04:39:47.989Z,93167.88
2023-03-06T04:42:14.751Z,93167.09
2023-03-06T04:44:41.202Z,93158.13
2023-03-06T04:47:07.959Z,93165.56
2023-03-06T04:49:34.649Z,93168.13
2023-03-06T04:52:01.077Z,93156.34
2023-03-06T04:54:27.488Z,93155.28
2023-03-06T04:56:53.878Z,93155.28
2023-03-06T04:59:20.388Z,93151.44
2023-03-06T05:01:46.926Z,93160.41
2023-03-06T05:04:13.389Z,93160.94
2023-03-06T05:06:39.892Z,93155.81
2023-03-06T05:09:06.330Z,93162.97
2023-03-06T05:11:32.716Z,93158.38
2023-03-06T05:13:59.171Z,93154.28
2023-03-06T05:16:25.612Z,93155.81
2023-03-06T05:18:52.136Z,93151.44
2023-03-06T05:21:18.617Z,93160.69
2023-03-06T05:23:45.111Z,93154.53
2023-03-06T05:26:14.015Z,93158.38
2023-03-06T05:28:41.094Z,93153.78
2023-03-06T05:31:07.873Z,93136.84
2023-03-06T05:33:36.080Z,93152.47
2023-03-06T05:36:03.658Z,93144.03
2023-03-06T05:38:30.141Z,93150.19
2023-03-06T05:40:56.537Z,93149.41
2023-03-06T05:43:22.944Z,93155.31
2023-03-06T05:45:50.479Z,93159.16
2023-03-06T05:48:17.074Z,93148.91
2023-03-06T05:50:43.522Z,93152.75
2023-03-06T05:53:09.981Z,93156.31
2023-03-06T05:55:36.402Z,93152.75
2023-03-06T05:58:02.862Z,93160.19
2023-03-06T06:00:29.330Z,93151.72
2023-03-06T06:02:55.722Z,93157.34
2023-03-06T06:05:22.131Z,93160.41
2023-03-06T06:07:48.518Z,93168.13
2023-03-06T06:10:15.232Z,93160.94
2023-03-06T06:12:41.660Z,93163.53
2023-03-06T06:15:08.373Z,93164.81
2023-03-06T06:17:34.833Z,93159.41
2023-03-06T06:20:01.353Z,93153.53
2023-03-06T06:22:27.753Z,93163.03
2023-03-06T06:24:54.185Z,93161.97
2023-03-06T06:27:20.581Z,93159.94
2023-03-06T06:29:50.430Z,93153.28
2023-03-06T06:32:17.032Z,93155.06
2023-03-06T06:34:43.452Z,93165.06
2023-03-06T06:37:10.059Z,93162.50
2023-03-06T06:39:36.650Z,93165.06
2023-03-06T06:42:27.803Z,93159.41
2023-03-06T06:44:50.211Z,93158.91
2023-03-06T06:47:25.438Z,93154.31
2023-03-06T06:49:54.086Z,93161.47
2023-03-06T06:52:20.962Z,93156.63
2023-03-06T06:54:47.433Z,93158.16
2023-03-06T06:57:14.530Z,93157.66
2023-03-06T06:59:41.156Z,93167.66
2023-03-06T07:02:07.852Z,93159.19
2023-03-06T07:04:34.309Z,93173.03
2023-03-06T07:07:01.140Z,93169.69
2023-03-06T07:09:27.747Z,93165.59
2023-03-06T07:11:54.337Z,93172.00
2023-03-06T07:14:20.739Z,93168.41
2023-03-06T07:16:47.144Z,93165.56
2023-03-06T07:19:13.584Z,93173.78
2023-03-06T07:21:40.359Z,93171.22
2023-03-06T07:24:06.927Z,93167.63
2023-03-06T07:26:34.753Z,93178.38
2023-03-06T07:29:02.056Z,93180.47
2023-03-06T07:31:28.629Z,93180.97
2023-03-06T07:33:55.490Z,93181.50
2023-03-06T07:36:23.731Z,93173.78
2023-03-06T07:38:50.345Z,93178.91
2023-03-06T07:41:19.804Z,93189.69
2023-03-06T07:43:48.373Z,93176.63
2023-03-06T07:46:14.823Z,93177.41
2023-03-06T07:48:42.641Z,93183.53
2023-03-06T07:51:14.772Z,93189.44
2023-03-06T07:53:41.437Z,93194.31
2023-03-06T07:56:09.052Z,93202.03
2023-03-06T07:58:37.716Z,93210.47
2023-03-06T08:01:06.442Z,93200.50
2023-03-06T08:03:33.248Z,93200.72
2023-03-06T08:06:10.184Z,93213.31
2023-03-06T08:08:39.440Z,93207.16
2023-03-06T08:11:06.899Z,93200.97
2023-03-06T08:13:34.078Z,93208.94
2023-03-06T08:16:01.350Z,93208.19
2023-03-06T08:18:28.202Z,93208.19
2023-03-06T08:21:05.164Z,93206.63
2023-03-06T08:23:32.831Z,93215.88
2023-03-06T08:26:01.161Z,93211.53
2023-03-06T08:28:28.566Z,93206.13
2023-03-06T08:30:55.950Z,93215.59
2023-03-06T08:33:22.711Z,93197.41
2023-03-06T08:35:49.157Z,93205.84
2023-03-06T08:38:15.666Z,93213.31
2023-03-06T08:40:42.157Z,93209.72
2023-03-06T08:43:11.306Z,93210.22
2023-03-06T08:45:39.656Z,93214.84
2023-03-06T08:48:06.163Z,93214.84
2023-03-06T08:50:32.704Z,93229.72
2023-03-06T08:52:59.202Z,93228.69
2023-03-06T08:55:25.757Z,93220.47
2023-03-06T08:57:52.127Z,93221.50
2023-03-06T09:00:19.042Z,93221.78
2023-03-06T09:02:45.468Z,93220.00
2023-03-06T09:05:11.974Z,93231.00
2023-03-06T09:07:38.409Z,93229.50
2023-03-06T09:10:05.165Z,93220.00
2023-03-06T09:12:40.425Z,93227.69
2023-03-06T09:15:14.418Z,93234.88
2023-03-06T09:17:41.032Z,93235.16
2023-03-06T09:20:10.561Z,93237.19
2023-03-06T09:22:37.841Z,93236.16
2023-03-06T09:25:05.495Z,93238.47
2023-03-06T09:27:31.928Z,93225.13
2023-03-06T09:29:58.315Z,93230.78
2023-03-06T09:32:24.811Z,93235.13
2023-03-06T09:34:51.275Z,93230.25
2023-03-06T09:37:17.996Z,93235.88
2023-03-06T09:39:44.763Z,93233.81
2023-03-06T09:42:18.471Z,93233.56
2023-03-06T09:44:50.341Z,93231.75
2023-03-06T09:47:47.388Z,93235.34
2023-03-06T09:50:23.801Z,93235.84
2023-03-06T09:53:15.492Z,93229.41
2023-03-06T09:55:44.111Z,93228.06
2023-03-06T09:58:25.627Z,93232.41
2023-03-06T10:01:16.192Z,93222.09
2023-03-06T10:03:54.622Z,93231.34
2023-03-06T10:06:26.234Z,93224.66
2023-03-06T10:09:05.497Z,93224.38
2023-03-06T10:11:40.940Z,93222.78
2023-03-06T10:14:32.286Z,93226.84
2023-03-06T10:16:59.042Z,93222.44
2023-03-06T10:19:36.530Z,93210.78
2023-03-06T10:22:34.966Z,93203.53
2023-03-06T10:25:15.479Z,93213.78
2023-03-06T10:27:50.676Z,93207.53
2023-03-06T10:30:37.957Z,93197.69
2023-03-06T10:33:30.731Z,93200.69
2023-03-06T10:35:58.478Z,93200.06
2023-03-06T10:38:37.647Z,93204.09
2023-03-06T10:41:12.767Z,93200.16
2023-03-06T10:43:41.752Z,93200.94
2023-03-06T10:46:11.906Z,93195.81
2023-03-06T10:48:41.990Z,93205.06
2023-03-06T10:51:23.994Z,93200.56
2023-03-06T10:54:02.000Z,93205.97
2023-03-06T10:56:39.075Z,93196.97
2023-03-06T10:59:22.972Z,93196.72
2023-03-06T11:01:52.051Z,93199.06
2023-03-06T11:04:28.531Z,93185.38
2023-03-06T11:07:18.784Z,93204.13
2023-03-06T11:09:58.849Z,93179.53
2023-03-06T11:12:32.657Z,93191.59
2023-03-06T11:15:14.211Z,93188.09
2023-03-06T11:17:59.437Z,93195.91
2023-03-06T11:20:44.669Z,93199.09
2023-03-06T11:23:38.614Z,93195.81
2023-03-06T11:26:17.339Z,93191.47
2023-03-06T11:28:48.558Z,93192.28
2023-03-06T11:31:20.733Z,93189.97
2023-03-06T11:34:04.242Z,93194.38
2023-03-06T11:36:52.839Z,93183.63
2023-03-06T11:39:34.257Z,93189.56
2023-03-06T11:42:09.369Z,93187.00
2023-03-06T11:45:04.108Z,93185.97
2023-03-06T11:48:08.710Z,93186.50
2023-03-06T11:50:39.740Z,93181.94
2023-03-06T11:53:12.220Z,93182.25
2023-03-06T11:56:20.199Z,93180.00
2023-03-06T11:59:34.894Z,93187.22
2023-03-06T12:02:11.289Z,93172.91
2023-03-06T12:04:52.452Z,93186.53
2023-03-06T12:07:44.993Z,93180.16
2023-03-06T12:11:13.315Z,93185.81
2023-03-06T12:14:01.014Z,93181.19
2023-03-06T12:16:30.079Z,93178.13
2023-03-06T12:19:19.434Z,93181.75
2023-03-06T12:22:04.238Z,93178.66
2023-03-06T12:24:33.625Z,93168.38
2023-03-06T12:27:18.162Z,93162.97
2023-03-06T12:29:53.717Z,93163.72
2023-03-06T12:32:37.200Z,93167.84
2023-03-06T12:35:27.829Z,93153.16
2023-03-06T12:38:29.303Z,93169.38
2023-03-06T12:41:14.295Z,93166.31
2023-03-06T12:44:07.488Z,93164.78
2023-03-06T12:46:39.597Z,93166.84
2023-03-06T12:49:22.975Z,93167.59
2023-03-06T12:51:58.322Z,93157.78
2023-03-06T12:54:29.445Z,93168.31
2023-03-06T12:56:57.590Z,93154.66
2023-03-06T12:59:37.954Z,93152.28
2023-03-06T13:02:29.857Z,93156.09
2023-03-06T13:05:21.529Z,93155.75
2023-03-06T13:07:48.138Z,93157.94
2023-03-06T13:10:23.221Z,93154.16
2023-03-06T13:13:05.071Z,93147.53
2023-03-06T13:15:41.819Z,93134.78
2023-03-06T13:18:34.608Z,93143.19
2023-03-06T13:21:01.177Z,93142.72
2023-03-06T13:23:43.175Z,93144.81
2023-03-06T13:26:09.604Z,93144.81
2023-03-06T13:28:47.619Z,93142.72
2023-03-06T13:31:27.827Z,93143.72
2023-03-06T13:34:00.749Z,93129.25
2023-03-06T13:36:39.996Z,93135.81
2023-03-06T13:39:10.827Z,93137.78
2023-03-06T13:41:43.361Z,93134.66
2023-03-06T13:44:25.075Z,93137.53
2023-03-06T13:46:59.479Z,93129.50
2023-03-06T13:49:27.127Z,93121.28
2023-03-06T13:51:53.719Z,93128.47
2023-03-06T13:54:57.158Z,93122.22
2023-03-06T13:57:54.697Z,93118.34
2023-03-06T14:00:55.180Z,93123.19
2023-03-06T14:03:59.045Z,93112.81
2023-03-06T14:07:06.997Z,93117.97
2023-03-06T14:09:37.311Z,93110.94
2023-03-06T14:12:16.536Z,93121.28
2023-03-06T14:14:48.428Z,93108.72
2023-03-06T14:17:24.058Z,93113.94
2023-03-06T14:19:51.204Z,93098.31
2023-03-06T14:22:24.616Z,93108.16
2023-03-06T14:25:02.937Z,93119.28
2023-03-06T14:27:46.893Z,93108.81
2023-03-06T14:30:16.619Z,93115.88
2023-03-06T14:32:43.574Z,93108.94
2023-03-06T14:35:39.323Z,93109.22
2023-03-06T14:38:06.550Z,93107.44
2023-03-06T14:40:42.488Z,93100.72
2023-03-06T14:43:21.619Z,93105.13
2023-03-06T14:45:59.640Z,93102.34
2023-03-06T14:48:47.708Z,93104.38
2023-03-06T14:51:22.920Z,93103.91
2023-03-06T14:53:50.917Z,93096.97
2023-03-06T14:56:21.943Z,93093.59
2023-03-06T14:58:55.437Z,93092.28
2023-03-06T15:01:36.668Z,93100.50
2023-03-06T15:04:15.083Z,93097.19
2023-03-06T15:06:45.105Z,93093.59
2023-03-06T15:09:24.188Z,93104.91
2023-03-06T15:12:02.189Z,93104.13
2023-03-06T15:14:31.075Z,93103.91
2023-03-06T15:17:17.542Z,93106.25
2023-03-06T15:19:45.948Z,93103.97
2023-03-06T15:22:34.111Z,93109.66
2023-03-06T15:25:16.073Z,93115.63
2023-03-06T15:27:55.013Z,93117.47
2023-03-06T15:30:26.171Z,93129.84
2023-03-06T15:33:24.755Z,93131.75
2023-03-06T15:35:56.901Z,93123.84
2023-03-06T15:38:35.156Z,93124.94
2023-03-06T15:41:03.391Z,93119.59
2023-03-06T15:43:36.345Z,93119.63
2023-03-06T15:46:05.551Z,93115.03
2023-03-06T15:48:33.900Z,93108.88
2023-03-06T15:51:00.450Z,93107.06
2023-03-06T15:53:26.972Z,93102.94
2023-03-06T15:55:53.515Z,93108.09
2023-03-06T15:58:23.783Z,93107.06
2023-03-06T16:00:50.940Z,93099.84
2023-03-06T16:03:18.269Z,93094.16
2023-03-06T16:05:44.728Z,93102.38
2023-03-06T16:08:14.672Z,93091.84
2023-03-06T16:10:43.946Z,93096.22
2023-03-06T16:13:26.951Z,93093.88
2023-03-06T16:15:54.317Z,93092.38
2023-03-06T16:18:20.911Z,93095.44
2023-03-06T16:20:47.373Z,93094.66
2023-03-06T16:23:15.299Z,93096.47
2023-03-06T16:25:44.998Z,93101.88
2023-03-06T16:28:14.618Z,93097.50
2023-03-06T16:30:42.926Z,93104.94
2023-03-06T16:33:13.281Z,93104.94
2023-03-06T16:35:41.084Z,93106.75
2023-03-06T16:38:07.625Z,93109.31
2023-03-06T16:40:41.431Z,93108.56
2023-03-06T16:43:09.676Z,93111.41
2023-03-06T16:45:38.415Z,93111.41
2023-03-06T16:48:06.093Z,93107.03
2023-03-06T16:50:39.934Z,93115.50
2023-03-06T16:53:07.674Z,93103.97
2023-03-06T16:55:34.210Z,93112.16
2023-03-06T16:58:00.656Z,93110.13
2023-03-06T17:00:32.949Z,93121.19
2023-03-06T17:03:00.874Z,93108.09
2023-03-06T17:05:28.574Z,93118.63
2023-03-06T17:07:55.679Z,93123.25
2023-03-06T17:10:26.153Z,93127.63
2023-03-06T17:12:53.343Z,93131.72
2023-03-06T17:15:20.200Z,93081.03
2023-03-06T17:17:46.858Z,93129.44
2023-03-06T17:20:13.595Z,93140.50
2023-03-06T17:22:41.453Z,93134.34
2023-03-06T17:25:09.245Z,93141.03
2023-03-06T17:27:36.650Z,93138.94
2023-03-06T17:30:04.541Z,93144.09
2023-03-06T17:32:32.286Z,93141.03
2023-03-06T17:34:58.880Z,93148.72
2023-03-06T17:37:25.361Z,93148.25
2023-03-06T17:39:51.856Z,93142.34
2023-03-06T17:42:18.240Z,93148.53
2023-03-06T17:44:44.661Z,93153.91
2023-03-06T17:47:11.369Z,93155.44
2023-03-06T17:49:37.817Z,93159.59
2023-03-06T17:52:05.636Z,93169.59
2023-03-06T17:54:33.160Z,93170.38
2023-03-06T17:57:03.197Z,93173.97
2023-03-06T17:59:30.664Z,93158.09
2023-03-06T18:01:58.212Z,93167.59
2023-03-06T18:04:25.319Z,93163.25
2023-03-06T18:06:51.721Z,93178.41
2023-03-06T18:09:18.300Z,93166.09
2023-03-06T18:11:44.853Z,93159.94
2023-03-06T18:14:11.337Z,93176.66
2023-03-06T18:16:38.174Z,93168.94
2023-03-06T18:19:04.669Z,93166.88
2023-03-06T18:21:31.052Z,93171.53
2023-03-06T18:23:58.118Z,93178.22
2023-03-06T18:26:26.840Z,93170.00
2023-03-06T18:28:55.867Z,93171.31
2023-03-06T18:31:25.682Z,93166.44
2023-03-06T18:33:54.867Z,93173.63
2023-03-06T18:36:23.338Z,93168.97
2023-03-06T18:38:51.614Z,93173.91
2023-03-06T18:41:19.951Z,93171.59
2023-03-06T18:43:51.325Z,93179.28
2023-03-06T18:46:17.679Z,93178.78
2023-03-06T18:48:44.094Z,93170.84
2023-03-06T18:51:11.944Z,93172.66
2023-03-06T18:53:39.962Z,93175.72
2023-03-06T18:56:08.789Z,93178.78
2023-03-06T18:58:35.586Z,93179.81
2023-03-06T19:01:07.101Z,93172.91
2023-03-06T19:03:34.041Z,93181.09
2023-03-06T19:06:04.870Z,93171.09
2023-03-06T19:08:31.420Z,93177.25
2023-03-06T19:11:02.672Z,93176.75
2023-03-06T19:13:29.508Z,93170.34
2023-03-06T19:15:57.042Z,93170.34
2023-03-06T19:18:24.841Z,93169.06
2023-03-06T19:20:52.709Z,93180.09
2023-03-06T19:23:21.115Z,93180.09
2023-03-06T19:25:58.280Z,93174.22
2023-03-06T19:28:25.201Z,93170.09
2023-03-06T19:30:52.129Z,93174.97
2023-03-06T19:33:19.697Z,93181.91
2023-03-06T19:35:46.427Z,93177.53
2023-03-06T19:38:13.657Z,93167.50
2023-03-06T19:40:40.057Z,93172.94
2023-03-06T19:43:06.623Z,93167.00
2023-03-06T19:45:33.035Z,93158.81
2023-03-06T19:48:00.865Z,93174.22
2023-03-06T19:50:30.478Z,93166.75
2023-03-06T19:52:57.500Z,93164.47
2023-03-06T19:55:26.244Z,93161.38
2023-03-06T19:57:53.128Z,93160.34
2023-03-06T20:00:20.329Z,93163.72
2023-03-06T20:02:46.901Z,93160.38
2023-03-06T20:05:13.322Z,93172.44
2023-03-06T20:07:39.707Z,93168.06
2023-03-06T20:10:07.090Z,93175.00
2023-03-06T20:12:33.861Z,93175.00
2023-03-06T20:15:00.300Z,93169.09
2023-03-06T20:17:26.697Z,93171.66
2023-03-06T20:19:53.444Z,93163.97
2023-03-06T20:22:19.890Z,93171.16
2023-03-06T20:24:46.408Z,93168.84
2023-03-06T20:27:12.979Z,93168.84
2023-03-06T20:29:44.474Z,93171.91
2023-03-06T20:32:12.253Z,93162.16
2023-03-06T20:34:39.652Z,93174.22
2023-03-06T20:37:07.422Z,93168.59
2023-03-06T20:39:33.923Z,93174.75
2023-03-06T20:42:00.750Z,93170.69
2023-03-06T20:44:27.488Z,93165.03
2023-03-06T20:46:55.112Z,93169.38
2023-03-06T20:49:22.278Z,93168.13
2023-03-06T20:51:49.848Z,93173.75
2023-03-06T20:54:17.202Z,93178.63
2023-03-06T20:56:47.938Z,93164.50
2023-03-06T20:59:14.972Z,93160.41
2023-03-06T21:01:44.212Z,93164.50
2023-03-06T21:04:13.803Z,93160.41
2023-03-06T21:06:43.929Z,93162.97
2023-03-06T21:09:11.248Z,93159.88
2023-03-06T21:11:37.664Z,93167.06
2023-03-06T21:14:04.113Z,93163.22
2023-03-06T21:16:30.813Z,93157.84
2023-03-06T21:18:59.575Z,93157.31
2023-03-06T21:21:29.618Z,93157.31
2023-03-06T21:23:56.114Z,93157.31
2023-03-06T21:26:25.305Z,93148.13
2023-03-06T21:28:51.970Z,93153.47
2023-03-06T21:31:20.554Z,93148.09
2023-03-06T21:33:48.685Z,93149.13
2023-03-06T21:36:15.773Z,93143.19
2023-03-06T21:38:42.374Z,93136.28
2023-03-06T21:41:12.594Z,93137.28
2023-03-06T21:43:39.506Z,93132.94
2023-03-06T21:46:06.590Z,93130.13
2023-03-06T21:48:33.165Z,93127.28
2023-03-06T21:51:13.294Z,93124.97
2023-03-06T21:53:42.450Z,93112.66
2023-03-06T21:56:10.537Z,93105.97
2023-03-06T21:58:37.282Z,93105.97
2023-03-06T22:01:09.728Z,93101.34
2023-03-06T22:03:36.198Z,93105.44
2023-03-06T22:06:11.120Z,93097.28
2023-03-06T22:08:37.901Z,93099.03
2023-03-06T22:11:14.264Z,93098.25
2023-03-06T22:13:41.276Z,93096.22
2023-03-06T22:16:09.033Z,93094.44
2023-03-06T22:18:35.987Z,93098.78
2023-03-06T22:21:10.445Z,93092.91
2023-03-06T22:23:37.031Z,93096.22
2023-03-06T22:26:09.428Z,93094.69
2023-03-06T22:28:35.842Z,93092.63
2023-03-06T22:31:06.723Z,93093.41
2023-03-06T22:33:33.195Z,93087.00
2023-03-06T22:36:06.180Z,93080.06
2023-03-06T22:38:34.278Z,93079.50
2023-03-06T22:41:00.905Z,93085.94
2023-03-06T22:43:27.632Z,93080.81
2023-03-06T22:45:54.096Z,93086.44
2023-03-06T22:48:21.186Z,93093.66
2023-03-06T22:50:47.637Z,93086.97
2023-03-06T22:53:14.112Z,93086.44
2023-03-06T22:55:40.504Z,93083.88
2023-03-06T22:58:07.095Z,93081.06
2023-03-06T23:00:33.524Z,93086.16
2023-03-06T23:02:59.981Z,93082.84
2023-03-06T23:05:29.161Z,93079.25
2023-03-06T23:07:55.956Z,93085.41
2023-03-06T23:10:22.384Z,93081.81
2023-03-06T23:13:07.252Z,93082.84
2023-03-06T23:15:52.073Z,93086.44
2023-03-06T23:18:38.545Z,93077.97
2023-03-06T23:21:23.575Z,93079.50
2023-03-06T23:24:08.315Z,93075.69
2023-03-06T23:26:34.966Z,93078.25
2023-03-06T23:29:04.163Z,93081.31
2023-03-06T23:31:31.490Z,93077.69
2023-03-06T23:34:00.624Z,93075.94
2023-03-06T23:36:27.822Z,93078.47
2023-03-06T23:38:54.496Z,93071.81
2023-03-06T23:41:22.626Z,93067.44
2023-03-06T23:43:49.904Z,93071.03
2023-03-06T23:46:17.166Z,93067.69
2023-03-06T23:48:44.223Z,93063.59
2023-03-06T23:51:28.626Z,93067.22
2023-03-06T23:53:57.942Z,93061.03
2023-03-06T23:56:25.882Z,93054.88
2023-03-06T23:58:52.777Z,93057.19
